Time;durP1;ratioP1;P1;durP2;ratioP2;P2;SDS_P1;SDS_P2;PMS_P1;PMS_P2;Temp;Humidity;BMP_temperature;BMP_pressure;BME280_temperature;BME280_humidity;BME280_pressure;Samples;Min_cycle;Max_cycle;Signal;HPM_P1;HPM_P2
2023/10/28 00:01:41;;;;;;;1.30;1.20;;;;;;;;;;5046650;28;20209;-85
2023/10/28 00:04:08;;;;;;;1.20;1.15;;;;;;;;;;5048506;28;20258;-85
2023/10/28 00:06:36;;;;;;;1.35;0.95;;;;;;;;;;5037161;28;20233;-86
2023/10/28 00:09:05;;;;;;;1.38;1.15;;;;;;;;;;5031072;28;20616;-85
2023/10/28 00:11:35;;;;;;;1.10;1.00;;;;;;;;;;5024866;28;20210;-87
2023/10/28 00:14:03;;;;;;;1.20;1.02;;;;;;;;;;5033064;28;20702;-87
2023/10/28 00:16:30;;;;;;;2.75;1.42;;;;;;;;;;5032647;28;20289;-87
2023/10/28 00:18:58;;;;;;;1.38;0.95;;;;;;;;;;5021967;28;20238;-87
2023/10/28 00:21:25;;;;;;;1.85;1.23;;;;;;;;;;5032019;28;20202;-86
2023/10/28 00:23:53;;;;;;;1.90;1.30;;;;;;;;;;5032436;28;20604;-86
2023/10/28 00:26:22;;;;;;;1.60;1.50;;;;;;;;;;5032922;28;20234;-85
2023/10/28 00:28:52;;;;;;;1.02;1.02;;;;;;;;;;5032433;28;20198;-85
2023/10/28 00:31:20;;;;;;;2.80;1.60;;;;;;;;;;5029786;28;20203;-86
2023/10/28 00:33:49;;;;;;;1.95;1.48;;;;;;;;;;5030433;28;20719;-85
2023/10/28 00:36:17;;;;;;;4.03;1.63;;;;;;;;;;5026948;28;20206;-86
2023/10/28 00:38:44;;;;;;;2.22;1.63;;;;;;;;;;5032167;28;20198;-87
2023/10/28 00:41:13;;;;;;;1.75;0.90;;;;;;;;;;5029733;28;20234;-86
2023/10/28 00:43:40;;;;;;;3.83;2.03;;;;;;;;;;5032298;28;20226;-85
2023/10/28 00:46:09;;;;;;;2.55;1.40;;;;;;;;;;5032345;28;20720;-86
2023/10/28 00:48:38;;;;;;;1.30;1.20;;;;;;;;;;5029491;28;20205;-85
2023/10/28 00:51:06;;;;;;;2.10;1.13;;;;;;;;;;5027493;28;20303;-85
2023/10/28 00:53:33;;;;;;;2.00;1.13;;;;;;;;;;5029044;28;20234;-86
2023/10/28 00:56:01;;;;;;;1.98;1.13;;;;;;;;;;5032141;28;20198;-87
2023/10/28 00:58:30;;;;;;;1.73;1.10;;;;;;;;;;5027433;28;20205;-87
2023/10/28 01:00:58;;;;;;;1.70;1.40;;;;;;;;;;5021426;28;20202;-85
2023/10/28 01:03:28;;;;;;;1.40;1.30;;;;;;;;;;5024120;28;20225;-86
2023/10/28 01:05:56;;;;;;;1.17;0.90;;;;;;;;;;5032308;28;20228;-85
2023/10/28 01:08:24;;;;;;;1.67;1.25;;;;;;;;;;5031661;28;20300;-86
2023/10/28 01:10:51;;;;;;;1.10;1.08;;;;;;;;;;5029592;28;20289;-85
2023/10/28 01:13:19;;;;;;;1.60;1.10;;;;;;;;;;5031428;28;20309;-85
2023/10/28 01:15:46;;;;;;;3.38;1.58;;;;;;;;;;5031403;28;20229;-84
2023/10/28 01:18:13;;;;;;;3.95;1.92;;;;;;;;;;5025833;28;20663;-84
2023/10/28 01:20:42;;;;;;;1.85;1.60;;;;;;;;;;5026975;28;20198;-85
2023/10/28 01:23:11;;;;;;;2.67;1.42;;;;;;;;;;5029512;28;20313;-85
2023/10/28 01:25:39;;;;;;;4.78;2.05;;;;;;;;;;5031738;28;20222;-85
2023/10/28 01:28:08;;;;;;;1.83;1.73;;;;;;;;;;5031352;28;20203;-85
2023/10/28 01:30:37;;;;;;;1.52;1.30;;;;;;;;;;5031607;28;20198;-86
2023/10/28 01:33:05;;;;;;;1.40;1.30;;;;;;;;;;5029319;28;20244;-86
2023/10/28 01:35:32;;;;;;;1.42;1.33;;;;;;;;;;5029252;28;20237;-86
2023/10/28 01:38:00;;;;;;;0.90;0.90;;;;;;;;;;5032026;28;20249;-87
2023/10/28 01:40:30;;;;;;;1.17;1.08;;;;;;;;;;5034057;28;20229;-85
2023/10/28 01:42:57;;;;;;;1.33;1.05;;;;;;;;;;5035280;28;20742;-85
2023/10/28 01:45:25;;;;;;;0.95;0.95;;;;;;;;;;5035185;28;20680;-85
2023/10/28 01:47:52;;;;;;;1.00;1.00;;;;;;;;;;5035513;28;20221;-86
2023/10/28 01:50:21;;;;;;;2.47;1.08;;;;;;;;;;5032852;28;20230;-87
2023/10/28 01:52:49;;;;;;;1.52;1.42;;;;;;;;;;5035417;28;20633;-84
2023/10/28 01:55:17;;;;;;;1.20;1.20;;;;;;;;;;5035141;28;20250;-85
2023/10/28 01:57:45;;;;;;;3.22;1.60;;;;;;;;;;5035034;28;20255;-87
2023/10/28 02:00:15;;;;;;;1.20;1.20;;;;;;;;;;5032475;28;20655;-85
2023/10/28 02:02:44;;;;;;;1.77;1.42;;;;;;;;;;5028882;28;20262;-86
2023/10/28 02:05:12;;;;;;;1.30;1.20;;;;;;;;;;5035236;28;20199;-86
2023/10/28 02:07:40;;;;;;;1.20;1.10;;;;;;;;;;5034973;28;20210;-86
2023/10/28 02:10:09;;;;;;;1.27;1.17;;;;;;;;;;5032811;28;20207;-85
2023/10/28 02:12:36;;;;;;;1.08;1.08;;;;;;;;;;5034214;28;20198;-86
2023/10/28 02:15:08;;;;;;;1.25;1.10;;;;;;;;;;5027398;28;20258;-86
2023/10/28 02:17:36;;;;;;;1.30;1.20;;;;;;;;;;5028817;28;20236;-87
2023/10/28 02:20:03;;;;;;;1.42;1.33;;;;;;;;;;5032286;28;20201;-86
2023/10/28 02:22:32;;;;;;;3.05;1.90;;;;;;;;;;5028814;28;20282;-85
2023/10/28 02:24:59;;;;;;;2.75;1.75;;;;;;;;;;5023992;28;20579;-85
2023/10/28 02:27:27;;;;;;;2.25;2.05;;;;;;;;;;5034774;28;20209;-85
2023/10/28 02:29:54;;;;;;;1.80;1.65;;;;;;;;;;5034710;28;20221;-86
2023/10/28 02:32:23;;;;;;;3.05;1.40;;;;;;;;;;5031681;28;20202;-85
2023/10/28 02:34:51;;;;;;;1.40;1.30;;;;;;;;;;5034258;28;20326;-86
2023/10/28 02:37:19;;;;;;;1.30;1.20;;;;;;;;;;5034230;28;20649;-85
2023/10/28 02:39:47;;;;;;;1.70;1.52;;;;;;;;;;5034249;28;20206;-86
2023/10/28 02:42:14;;;;;;;1.63;1.52;;;;;;;;;;5022703;28;20207;-85
2023/10/28 02:44:42;;;;;;;1.15;1.08;;;;;;;;;;5030124;28;20308;-85
2023/10/28 02:47:09;;;;;;;3.45;1.10;;;;;;;;;;5034912;28;20210;-86
2023/10/28 02:49:38;;;;;;;1.60;1.50;;;;;;;;;;5030062;28;20211;-85
2023/10/28 02:52:07;;;;;;;1.45;1.35;;;;;;;;;;5033904;28;20198;-86
2023/10/28 02:54:35;;;;;;;4.43;1.45;;;;;;;;;;5034086;28;20696;-86
2023/10/28 02:57:03;;;;;;;1.17;1.15;;;;;;;;;;5032200;28;20201;-87
2023/10/28 02:59:30;;;;;;;1.40;1.33;;;;;;;;;;5032543;28;20627;-87
2023/10/28 03:01:58;;;;;;;1.85;1.30;;;;;;;;;;5020005;28;20289;-86
2023/10/28 03:04:25;;;;;;;2.35;2.10;;;;;;;;;;5025650;28;20229;-85
2023/10/28 03:06:54;;;;;;;1.60;1.50;;;;;;;;;;5033759;28;20652;-86
2023/10/28 03:09:22;;;;;;;3.00;1.35;;;;;;;;;;5033741;28;20206;-87
2023/10/28 03:11:49;;;;;;;1.20;1.20;;;;;;;;;;5028830;28;20202;-86
2023/10/28 03:14:17;;;;;;;1.17;1.08;;;;;;;;;;5040649;28;20230;-87
2023/10/28 03:16:46;;;;;;;1.10;1.00;;;;;;;;;;5033204;28;20598;-87
2023/10/28 03:19:13;;;;;;;1.08;0.90;;;;;;;;;;5032283;28;20660;-88
2023/10/28 03:21:40;;;;;;;6.13;2.10;;;;;;;;;;5010849;28;20199;-87
2023/10/28 03:24:10;;;;;;;2.70;1.50;;;;;;;;;;5028538;28;20676;-87
2023/10/28 03:26:38;;;;;;;1.45;1.35;;;;;;;;;;5027097;28;20428;-87
2023/10/28 03:29:06;;;;;;;1.23;1.13;;;;;;;;;;5029368;28;20660;-87
2023/10/28 03:31:33;;;;;;;1.20;1.10;;;;;;;;;;5028770;28;20203;-87
2023/10/28 03:34:01;;;;;;;0.85;0.85;;;;;;;;;;5031041;28;20254;-87
2023/10/28 03:36:28;;;;;;;1.30;1.20;;;;;;;;;;5020740;28;20219;-86
2023/10/28 03:38:56;;;;;;;1.00;0.90;;;;;;;;;;5028494;28;20664;-87
2023/10/28 03:41:25;;;;;;;2.03;1.30;;;;;;;;;;5023574;28;20209;-86
2023/10/28 03:43:53;;;;;;;1.60;1.40;;;;;;;;;;5029412;28;20226;-86
2023/10/28 03:46:21;;;;;;;1.50;1.40;;;;;;;;;;5027736;28;20286;-86
2023/10/28 03:48:49;;;;;;;1.08;1.00;;;;;;;;;;5029900;28;20201;-87
2023/10/28 03:51:16;;;;;;;0.98;0.98;;;;;;;;;;5020090;28;20235;-86
2023/10/28 03:53:44;;;;;;;1.33;1.08;;;;;;;;;;5020519;28;20215;-87
2023/10/28 03:56:12;;;;;;;0.90;0.90;;;;;;;;;;5028635;28;20312;-87
2023/10/28 03:58:41;;;;;;;1.45;1.35;;;;;;;;;;5026673;28;20195;-87
2023/10/28 04:01:10;;;;;;;1.70;1.60;;;;;;;;;;5024294;28;20202;-87
2023/10/28 04:03:37;;;;;;;1.15;1.15;;;;;;;;;;5027679;28;20227;-87
2023/10/28 04:06:05;;;;;;;1.30;1.20;;;;;;;;;;5022557;28;20194;-86
2023/10/28 04:08:33;;;;;;;1.52;1.42;;;;;;;;;;5022408;28;20230;-86
2023/10/28 04:11:00;;;;;;;1.27;1.17;;;;;;;;;;5030589;28;20281;-86
2023/10/28 04:13:28;;;;;;;1.85;1.52;;;;;;;;;;5028690;28;20309;-86
2023/10/28 04:15:56;;;;;;;1.65;1.48;;;;;;;;;;5030316;28;20233;-87
2023/10/28 04:18:24;;;;;;;1.50;1.30;;;;;;;;;;5028993;28;20202;-86
2023/10/28 04:20:51;;;;;;;1.73;1.63;;;;;;;;;;5025710;28;20234;-87
2023/10/28 04:23:19;;;;;;;2.20;1.65;;;;;;;;;;5021453;28;20218;-86
2023/10/28 04:25:47;;;;;;;2.00;1.80;;;;;;;;;;5027079;28;20206;-86
2023/10/28 04:28:14;;;;;;;1.48;1.38;;;;;;;;;;5028242;28;20285;-87
2023/10/28 04:30:42;;;;;;;1.33;1.20;;;;;;;;;;5027652;28;20195;-87
2023/10/28 04:33:12;;;;;;;1.10;1.10;;;;;;;;;;5028773;28;20233;-85
2023/10/28 04:35:43;;;;;;;1.42;1.33;;;;;;;;;;5026150;28;20199;-85
2023/10/28 04:38:10;;;;;;;1.10;1.10;;;;;;;;;;5024073;28;20581;-86
2023/10/28 04:40:38;;;;;;;1.90;1.55;;;;;;;;;;5027458;28;20716;-86
2023/10/28 04:43:05;;;;;;;1.23;1.13;;;;;;;;;;5027627;28;20226;-84
2023/10/28 04:45:33;;;;;;;1.58;1.48;;;;;;;;;;5026162;28;20260;-86
2023/10/28 04:48:00;;;;;;;1.70;1.60;;;;;;;;;;5023051;28;20277;-86
2023/10/28 04:50:30;;;;;;;1.55;1.45;;;;;;;;;;5027647;28;20775;-85
2023/10/28 04:52:57;;;;;;;1.45;1.35;;;;;;;;;;5022077;28;20206;-87
2023/10/28 04:55:25;;;;;;;1.35;1.25;;;;;;;;;;5024769;28;20209;-88
2023/10/28 04:57:53;;;;;;;2.58;1.55;;;;;;;;;;5009740;28;20215;-87
2023/10/28 05:00:20;;;;;;;1.15;1.15;;;;;;;;;;5026969;28;20241;-86
2023/10/28 05:02:48;;;;;;;1.27;1.25;;;;;;;;;;5031367;28;20194;-86
2023/10/28 05:05:15;;;;;;;1.40;1.30;;;;;;;;;;5031295;28;20204;-85
2023/10/28 05:07:44;;;;;;;1.40;1.30;;;;;;;;;;5030692;28;20644;-88
2023/10/28 05:10:12;;;;;;;1.67;1.58;;;;;;;;;;5032613;28;20206;-86
2023/10/28 05:12:41;;;;;;;1.70;1.60;;;;;;;;;;5028307;28;20198;-85
2023/10/28 05:15:10;;;;;;;1.92;1.83;;;;;;;;;;5032626;28;20290;-86
2023/10/28 05:17:37;;;;;;;2.30;2.10;;;;;;;;;;5029599;28;20580;-88
2023/10/28 05:20:06;;;;;;;2.17;2.08;;;;;;;;;;5022174;28;20285;-87
2023/10/28 05:22:35;;;;;;;2.00;1.90;;;;;;;;;;5032769;28;20256;-85
2023/10/28 05:25:05;;;;;;;1.67;1.58;;;;;;;;;;5034072;28;20218;-88
2023/10/28 05:27:33;;;;;;;1.65;1.55;;;;;;;;;;5020305;28;20683;-87
2023/10/28 05:30:01;;;;;;;1.60;1.50;;;;;;;;;;5032230;28;20196;-86
2023/10/28 05:32:29;;;;;;;1.50;1.40;;;;;;;;;;5033927;28;20326;-86
2023/10/28 05:34:57;;;;;;;1.38;1.27;;;;;;;;;;5034338;28;20242;-87
2023/10/28 05:37:26;;;;;;;2.45;1.98;;;;;;;;;;5033502;28;20687;-85
2023/10/28 05:39:53;;;;;;;1.90;1.58;;;;;;;;;;5032165;28;20221;-87
2023/10/28 05:42:23;;;;;;;1.60;1.50;;;;;;;;;;5031233;28;20826;-87
2023/10/28 05:44:51;;;;;;;1.48;1.38;;;;;;;;;;5031364;28;20223;-86
2023/10/28 05:47:18;;;;;;;1.50;1.40;;;;;;;;;;5032293;28;20204;-85
2023/10/28 05:49:46;;;;;;;1.45;1.35;;;;;;;;;;5031911;28;20643;-86
2023/10/28 05:52:18;;;;;;;1.73;1.60;;;;;;;;;;5033355;28;20289;-86
2023/10/28 05:54:45;;;;;;;1.00;1.00;;;;;;;;;;5033452;28;20624;-87
2023/10/28 05:57:13;;;;;;;1.20;1.10;;;;;;;;;;5015329;28;20227;-85
2023/10/28 05:59:42;;;;;;;0.85;0.85;;;;;;;;;;5028589;28;20294;-87
2023/10/28 06:02:09;;;;;;;1.17;1.10;;;;;;;;;;5026646;28;20286;-86
2023/10/28 06:04:37;;;;;;;1.40;1.30;;;;;;;;;;5032657;28;20696;-86
2023/10/28 06:07:05;;;;;;;1.25;1.20;;;;;;;;;;5033617;28;20393;-87
2023/10/28 06:09:33;;;;;;;2.42;1.25;;;;;;;;;;5032951;28;20252;-84
2023/10/28 06:12:01;;;;;;;1.13;1.02;;;;;;;;;;5027229;28;20624;-86
2023/10/28 06:14:28;;;;;;;1.20;1.00;;;;;;;;;;5027735;28;20218;-87
2023/10/28 06:16:57;;;;;;;1.10;0.90;;;;;;;;;;5031605;28;20711;-88
2023/10/28 06:19:25;;;;;;;0.90;0.90;;;;;;;;;;5034685;28;20226;-86
2023/10/28 06:21:53;;;;;;;0.70;0.70;;;;;;;;;;5024782;28;20199;-85
2023/10/28 06:24:20;;;;;;;0.70;0.70;;;;;;;;;;5031538;28;20309;-86
2023/10/28 06:26:48;;;;;;;1.10;0.90;;;;;;;;;;5027398;28;20282;-88
2023/10/28 06:29:15;;;;;;;0.80;0.80;;;;;;;;;;5025284;28;20202;-85
2023/10/28 06:31:44;;;;;;;1.10;1.08;;;;;;;;;;5029707;28;20206;-87
2023/10/28 06:34:13;;;;;;;0.50;0.50;;;;;;;;;;5032747;28;20602;-86
2023/10/28 06:36:41;;;;;;;0.77;0.77;;;;;;;;;;5023777;28;20634;-86
2023/10/28 06:39:09;;;;;;;0.73;0.73;;;;;;;;;;5024838;28;20229;-87
2023/10/28 06:41:37;;;;;;;0.65;0.65;;;;;;;;;;5032854;28;20516;-86
2023/10/28 06:44:08;;;;;;;0.60;0.60;;;;;;;;;;5031451;28;20230;-87
2023/10/28 06:46:36;;;;;;;0.50;0.50;;;;;;;;;;5030233;28;20609;-87
2023/10/28 06:49:04;;;;;;;0.50;0.50;;;;;;;;;;5032499;28;20276;-86
2023/10/28 06:51:33;;;;;;;0.60;0.60;;;;;;;;;;5022556;28;20235;-85
2023/10/28 06:54:01;;;;;;;0.70;0.70;;;;;;;;;;5021533;28;20218;-87
2023/10/28 06:56:29;;;;;;;1.02;1.02;;;;;;;;;;5029931;28;20289;-88
2023/10/28 06:58:56;;;;;;;0.40;0.40;;;;;;;;;;5020046;28;20305;-86
2023/10/28 07:01:24;;;;;;;0.52;0.52;;;;;;;;;;5030876;28;20224;-87
2023/10/28 07:03:51;;;;;;;0.50;0.50;;;;;;;;;;5031095;28;20699;-87
2023/10/28 07:06:19;;;;;;;0.43;0.43;;;;;;;;;;5030653;28;20723;-86
2023/10/28 07:08:48;;;;;;;0.98;0.70;;;;;;;;;;5021312;28;20206;-87
2023/10/28 07:11:15;;;;;;;0.50;0.50;;;;;;;;;;5026210;28;20207;-87
2023/10/28 07:13:44;;;;;;;0.50;0.50;;;;;;;;;;5033024;28;20676;-86
2023/10/28 07:16:12;;;;;;;0.50;0.50;;;;;;;;;;5033856;28;20710;-86
2023/10/28 07:18:40;;;;;;;0.50;0.50;;;;;;;;;;5025446;28;20229;-86
2023/10/28 07:21:07;;;;;;;0.40;0.40;;;;;;;;;;5033590;28;20206;-86
2023/10/28 07:23:35;;;;;;;0.50;0.50;;;;;;;;;;5033021;28;20222;-87
2023/10/28 07:26:05;;;;;;;0.60;0.60;;;;;;;;;;5033558;28;20293;-88
2023/10/28 07:28:33;;;;;;;0.70;0.70;;;;;;;;;;5033229;28;20225;-88
2023/10/28 07:31:02;;;;;;;0.50;0.50;;;;;;;;;;5031957;28;20209;-87
2023/10/28 07:33:30;;;;;;;0.60;0.60;;;;;;;;;;5033315;28;20313;-87
2023/10/28 07:36:01;;;;;;;1.00;0.60;;;;;;;;;;5017286;28;20209;-87
2023/10/28 07:38:29;;;;;;;0.70;0.70;;;;;;;;;;5019523;28;20229;-87
2023/10/28 07:40:57;;;;;;;1.67;0.77;;;;;;;;;;5033186;28;20208;-85
2023/10/28 07:43:26;;;;;;;0.60;0.60;;;;;;;;;;5033200;28;20242;-87
2023/10/28 07:45:54;;;;;;;0.30;0.30;;;;;;;;;;5026379;28;20206;-86
2023/10/28 07:48:21;;;;;;;0.40;0.40;;;;;;;;;;5033355;28;20301;-85
2023/10/28 07:50:49;;;;;;;0.60;0.60;;;;;;;;;;5031133;28;20225;-86
2023/10/28 07:53:17;;;;;;;0.38;0.38;;;;;;;;;;5032797;28;20218;-86
2023/10/28 07:55:45;;;;;;;0.43;0.43;;;;;;;;;;5032412;28;20206;-86
2023/10/28 07:58:12;;;;;;;1.17;0.50;;;;;;;;;;5033218;28;20688;-86
2023/10/28 08:00:41;;;;;;;0.60;0.60;;;;;;;;;;5030954;28;20690;-87
2023/10/28 08:03:09;;;;;;;0.63;0.63;;;;;;;;;;5032761;28;20309;-85
2023/10/28 08:05:37;;;;;;;0.60;0.50;;;;;;;;;;5031128;28;20289;-85
2023/10/28 08:08:05;;;;;;;0.50;0.50;;;;;;;;;;5021135;28;20220;-86
2023/10/28 08:10:33;;;;;;;0.73;0.73;;;;;;;;;;5032408;28;20289;-85
2023/10/28 08:13:00;;;;;;;0.60;0.60;;;;;;;;;;5024761;28;20226;-85
2023/10/28 08:15:29;;;;;;;0.73;0.73;;;;;;;;;;5032169;28;20256;-85
2023/10/28 08:17:58;;;;;;;0.55;0.55;;;;;;;;;;5032489;28;20672;-86
2023/10/28 08:20:26;;;;;;;0.70;0.70;;;;;;;;;;5032179;28;20234;-85
2023/10/28 08:22:55;;;;;;;0.80;0.80;;;;;;;;;;5032811;28;20285;-86
2023/10/28 08:25:22;;;;;;;0.70;0.70;;;;;;;;;;5032510;28;20206;-85
2023/10/28 08:27:50;;;;;;;0.77;0.77;;;;;;;;;;5032301;28;20205;-86
2023/10/28 08:30:19;;;;;;;0.50;0.50;;;;;;;;;;5032199;28;20202;-85
2023/10/28 08:32:47;;;;;;;1.73;0.70;;;;;;;;;;5026182;28;20530;-85
2023/10/28 08:35:16;;;;;;;0.40;0.40;;;;;;;;;;5031045;28;20266;-86
2023/10/28 08:37:44;;;;;;;1.02;0.73;;;;;;;;;;5026804;28;20248;-85
2023/10/28 08:40:12;;;;;;;0.68;0.68;;;;;;;;;;5032021;28;20222;-86
2023/10/28 08:42:40;;;;;;;2.22;0.50;;;;;;;;;;5032068;28;20237;-86
2023/10/28 08:45:09;;;;;;;0.50;0.50;;;;;;;;;;5032228;28;20210;-86
2023/10/28 08:47:39;;;;;;;0.70;0.70;;;;;;;;;;5031797;28;20214;-85
2023/10/28 08:50:08;;;;;;;0.60;0.60;;;;;;;;;;5031865;28;20190;-86
2023/10/28 08:52:39;;;;;;;0.65;0.60;;;;;;;;;;5031934;28;20205;-86
2023/10/28 08:55:10;;;;;;;0.50;0.50;;;;;;;;;;5032371;28;20645;-85
2023/10/28 08:57:39;;;;;;;0.70;0.70;;;;;;;;;;5032157;28;20252;-86
2023/10/28 09:00:14;;;;;;;2.65;1.45;;;;;;;;;;5031883;28;20713;-86
2023/10/28 09:02:43;;;;;;;0.60;0.60;;;;;;;;;;5032251;28;20289;-87
2023/10/28 09:05:12;;;;;;;0.40;0.40;;;;;;;;;;5032729;28;20686;-86
2023/10/28 09:07:41;;;;;;;0.80;0.70;;;;;;;;;;5020451;28;20650;-86
2023/10/28 09:10:10;;;;;;;1.77;0.60;;;;;;;;;;5031693;28;20225;-86
2023/10/28 09:12:38;;;;;;;0.70;0.60;;;;;;;;;;5031642;28;20229;-86
2023/10/28 09:15:08;;;;;;;2.65;0.90;;;;;;;;;;5032055;28;20694;-87
2023/10/28 09:17:36;;;;;;;0.60;0.60;;;;;;;;;;5031670;28;20285;-85
2023/10/28 09:20:09;;;;;;;0.70;0.70;;;;;;;;;;5024310;28;20276;-87
2023/10/28 09:22:38;;;;;;;0.90;0.90;;;;;;;;;;5031839;28;20206;-86
2023/10/28 09:25:10;;;;;;;1.45;0.65;;;;;;;;;;5031895;28;20232;-86
2023/10/28 09:27:38;;;;;;;0.95;0.75;;;;;;;;;;5031629;28;20294;-87
2023/10/28 09:30:08;;;;;;;0.70;0.70;;;;;;;;;;5031581;28;20205;-86
2023/10/28 09:32:37;;;;;;;0.75;0.75;;;;;;;;;;5031298;28;20205;-87
2023/10/28 09:35:06;;;;;;;0.60;0.60;;;;;;;;;;5031686;28;20216;-85
2023/10/28 09:37:35;;;;;;;2.88;1.23;;;;;;;;;;5033203;28;20206;-86
2023/10/28 09:40:06;;;;;;;1.30;0.98;;;;;;;;;;5053132;28;20238;-86
2023/10/28 09:42:36;;;;;;;1.08;0.77;;;;;;;;;;5053274;28;20210;-85
2023/10/28 09:45:07;;;;;;;1.05;0.95;;;;;;;;;;5041155;28;20261;-86
2023/10/28 09:47:47;;;;;;;0.70;0.70;;;;;;;;;;5032590;28;20577;-86
2023/10/28 09:50:15;;;;;;;0.73;0.73;;;;;;;;;;5027013;28;20206;-86
2023/10/28 09:52:44;;;;;;;1.83;1.13;;;;;;;;;;5030785;28;20209;-85
2023/10/28 09:55:16;;;;;;;0.77;0.77;;;;;;;;;;5033284;28;20199;-87
2023/10/28 09:57:44;;;;;;;1.38;0.70;;;;;;;;;;5031630;28;20273;-87
2023/10/28 10:00:17;;;;;;;0.70;0.70;;;;;;;;;;5031991;28;20218;-88
2023/10/28 10:02:58;;;;;;;1.95;0.98;;;;;;;;;;5028059;28;20205;-86
2023/10/28 10:05:31;;;;;;;0.70;0.70;;;;;;;;;;5035301;28;20205;-86
2023/10/28 10:07:58;;;;;;;0.75;0.75;;;;;;;;;;5023295;28;20665;-87
2023/10/28 10:10:27;;;;;;;0.90;0.90;;;;;;;;;;5027908;28;20660;-87
2023/10/28 10:13:03;;;;;;;1.75;0.93;;;;;;;;;;5035389;28;20194;-86
2023/10/28 10:15:34;;;;;;;0.90;0.90;;;;;;;;;;5027176;28;20209;-86
2023/10/28 10:18:11;;;;;;;0.73;0.73;;;;;;;;;;5034410;28;20194;-87
2023/10/28 10:20:44;;;;;;;0.90;0.90;;;;;;;;;;5034813;28;20221;-87
2023/10/28 10:23:12;;;;;;;2.85;1.02;;;;;;;;;;5035087;28;20229;-87
2023/10/28 10:25:46;;;;;;;1.13;1.00;;;;;;;;;;5034776;28;20647;-87
2023/10/28 10:28:15;;;;;;;1.70;1.00;;;;;;;;;;5035036;28;20584;-86
2023/10/28 10:30:43;;;;;;;1.73;1.60;;;;;;;;;;5027571;28;20207;-86
2023/10/28 10:33:11;;;;;;;1.20;0.95;;;;;;;;;;5035047;28;20229;-87
2023/10/28 10:35:41;;;;;;;0.80;0.80;;;;;;;;;;5039143;28;20202;-87
2023/10/28 10:38:10;;;;;;;0.88;0.88;;;;;;;;;;5032686;28;20199;-89
2023/10/28 10:40:51;;;;;;;1.83;1.00;;;;;;;;;;5038877;28;20313;-88
2023/10/28 10:43:21;;;;;;;1.00;0.90;;;;;;;;;;5031661;28;20317;-88
2023/10/28 10:45:49;;;;;;;0.82;0.73;;;;;;;;;;5035095;28;20198;-89
2023/10/28 10:48:18;;;;;;;0.73;0.70;;;;;;;;;;5034885;28;20210;-87
2023/10/28 10:50:46;;;;;;;2.33;0.80;;;;;;;;;;5034937;28;20201;-87
2023/10/28 10:53:14;;;;;;;1.10;1.00;;;;;;;;;;5034489;28;20605;-88
2023/10/28 10:55:41;;;;;;;1.00;0.88;;;;;;;;;;5034088;28;20289;-88
2023/10/28 10:58:10;;;;;;;1.30;0.80;;;;;;;;;;5033016;28;20701;-88
2023/10/28 11:00:38;;;;;;;1.20;1.10;;;;;;;;;;5033517;28;20289;-88
2023/10/28 11:03:07;;;;;;;1.23;0.82;;;;;;;;;;5033870;28;20517;-87
2023/10/28 11:05:36;;;;;;;1.10;1.10;;;;;;;;;;5033691;28;20679;-88
2023/10/28 11:08:06;;;;;;;0.70;0.70;;;;;;;;;;5021920;28;20198;-87
2023/10/28 11:10:33;;;;;;;1.65;0.98;;;;;;;;;;5033805;28;20207;-86
2023/10/28 11:13:04;;;;;;;0.90;0.85;;;;;;;;;;5034016;28;20301;-89
2023/10/28 11:15:34;;;;;;;1.65;0.90;;;;;;;;;;5034253;28;20286;-88
2023/10/28 11:18:01;;;;;;;2.60;1.75;;;;;;;;;;5020644;28;20190;-88
2023/10/28 11:20:30;;;;;;;1.40;1.20;;;;;;;;;;5033167;28;20225;-88
2023/10/28 11:22:57;;;;;;;0.90;0.90;;;;;;;;;;5030510;28;20630;-88
2023/10/28 11:25:32;;;;;;;0.88;0.88;;;;;;;;;;5030022;28;20201;-87
2023/10/28 11:28:07;;;;;;;1.83;1.20;;;;;;;;;;5033306;28;20647;-87
2023/10/28 11:30:37;;;;;;;1.10;1.00;;;;;;;;;;5026006;28;20608;-87
2023/10/28 11:33:07;;;;;;;1.42;0.88;;;;;;;;;;5033303;28;20606;-87
2023/10/28 11:35:35;;;;;;;1.08;1.08;;;;;;;;;;5026403;28;20203;-87
2023/10/28 11:38:03;;;;;;;1.00;1.00;;;;;;;;;;5020912;28;20198;-89
2023/10/28 11:40:30;;;;;;;0.80;0.80;;;;;;;;;;5033216;28;20225;-88
2023/10/28 11:42:58;;;;;;;0.90;0.90;;;;;;;;;;5018679;28;20198;-87
2023/10/28 11:45:25;;;;;;;1.13;1.00;;;;;;;;;;5033611;28;20206;-88
2023/10/28 11:47:54;;;;;;;1.60;0.90;;;;;;;;;;5028415;28;20637;-86
2023/10/28 11:50:22;;;;;;;1.10;1.00;;;;;;;;;;5029027;28;20683;-89
2023/10/28 11:52:49;;;;;;;0.70;0.70;;;;;;;;;;5032894;28;20199;-87
2023/10/28 11:55:18;;;;;;;2.03;1.67;;;;;;;;;;5033037;28;20257;-87
2023/10/28 11:57:45;;;;;;;1.67;1.05;;;;;;;;;;5031954;28;20202;-87
2023/10/28 12:00:14;;;;;;;1.60;0.90;;;;;;;;;;5032646;28;20198;-87
2023/10/28 12:02:42;;;;;;;0.65;0.65;;;;;;;;;;5031258;28;20739;-87
2023/10/28 12:05:12;;;;;;;0.90;0.90;;;;;;;;;;5026716;28;20204;-87
2023/10/28 12:07:41;;;;;;;0.82;0.82;;;;;;;;;;5018996;28;20299;-86
2023/10/28 12:10:10;;;;;;;1.63;0.70;;;;;;;;;;5018136;28;20233;-86
2023/10/28 12:12:38;;;;;;;0.93;0.93;;;;;;;;;;5032632;28;20285;-87
2023/10/28 12:15:06;;;;;;;0.70;0.47;;;;;;;;;;5032755;28;20331;-87
2023/10/28 12:17:34;;;;;;;1.65;0.70;;;;;;;;;;5032173;28;20719;-87
2023/10/28 12:20:02;;;;;;;1.67;0.90;;;;;;;;;;5025248;28;20237;-87
2023/10/28 12:22:31;;;;;;;1.15;1.05;;;;;;;;;;5031971;28;20757;-86
2023/10/28 12:24:58;;;;;;;0.70;0.70;;;;;;;;;;5010602;28;20312;-87
2023/10/28 12:27:26;;;;;;;0.70;0.70;;;;;;;;;;5025400;28;20208;-86
2023/10/28 12:29:53;;;;;;;0.75;0.75;;;;;;;;;;5029347;28;20225;-87
2023/10/28 12:32:21;;;;;;;0.73;0.73;;;;;;;;;;5028121;28;20206;-88
2023/10/28 12:34:48;;;;;;;1.33;0.70;;;;;;;;;;5031277;28;20312;-87
2023/10/28 12:37:16;;;;;;;0.90;0.90;;;;;;;;;;5022763;28;20295;-86
2023/10/28 12:39:45;;;;;;;1.17;0.90;;;;;;;;;;5029790;28;20675;-88
2023/10/28 12:42:13;;;;;;;0.90;0.90;;;;;;;;;;5031709;28;20228;-87
2023/10/28 12:44:40;;;;;;;0.68;0.68;;;;;;;;;;5031062;28;20233;-86
2023/10/28 12:47:09;;;;;;;1.38;0.80;;;;;;;;;;5032168;28;20210;-87
2023/10/28 12:49:36;;;;;;;0.80;0.80;;;;;;;;;;5030943;28;20591;-88
2023/10/28 12:52:04;;;;;;;0.80;0.80;;;;;;;;;;5031384;28;20218;-88
2023/10/28 12:54:33;;;;;;;0.60;0.60;;;;;;;;;;5032023;28;20222;-88
2023/10/28 12:57:02;;;;;;;1.02;1.02;;;;;;;;;;5032198;28;20221;-88
2023/10/28 12:59:30;;;;;;;0.50;0.50;;;;;;;;;;5031971;28;20690;-87
2023/10/28 13:01:58;;;;;;;0.85;0.75;;;;;;;;;;5031330;28;20222;-87
2023/10/28 13:04:25;;;;;;;0.90;0.90;;;;;;;;;;5032064;28;20313;-86
2023/10/28 13:06:53;;;;;;;0.70;0.70;;;;;;;;;;5027293;28;20686;-86
2023/10/28 13:09:20;;;;;;;0.90;0.70;;;;;;;;;;5023066;28;20198;-86
2023/10/28 13:11:48;;;;;;;0.60;0.60;;;;;;;;;;5031239;28;20202;-86
2023/10/28 13:14:18;;;;;;;0.57;0.57;;;;;;;;;;5031444;28;20226;-87
2023/10/28 13:16:46;;;;;;;0.70;0.70;;;;;;;;;;5021932;28;20588;-86
2023/10/28 13:19:13;;;;;;;0.52;0.52;;;;;;;;;;5026032;28;20214;-88
2023/10/28 13:21:41;;;;;;;1.13;1.00;;;;;;;;;;5031261;28;20257;-87
2023/10/28 13:24:09;;;;;;;0.90;0.90;;;;;;;;;;5031540;28;20230;-86
2023/10/28 13:26:37;;;;;;;1.48;1.00;;;;;;;;;;5031001;28;20293;-87
2023/10/28 13:29:05;;;;;;;0.82;0.70;;;;;;;;;;5031515;28;20204;-88
2023/10/28 13:31:33;;;;;;;0.60;0.60;;;;;;;;;;5031257;28;20281;-88
2023/10/28 13:34:02;;;;;;;1.13;0.68;;;;;;;;;;5031919;28;20224;-88
2023/10/28 13:36:29;;;;;;;0.70;0.70;;;;;;;;;;5034581;28;20202;-88
2023/10/28 13:38:57;;;;;;;0.73;0.70;;;;;;;;;;5022159;28;20194;-87
2023/10/28 13:41:26;;;;;;;0.70;0.70;;;;;;;;;;5028110;28;20237;-87
2023/10/28 13:43:53;;;;;;;0.68;0.68;;;;;;;;;;5034185;28;20218;-86
2023/10/28 13:46:21;;;;;;;1.67;0.80;;;;;;;;;;5035771;28;20205;-87
2023/10/28 13:48:50;;;;;;;0.73;0.70;;;;;;;;;;5027855;28;20297;-86
2023/10/28 13:51:17;;;;;;;1.95;0.80;;;;;;;;;;5034873;28;20300;-86
2023/10/28 13:53:45;;;;;;;0.73;0.63;;;;;;;;;;5035492;28;20248;-86
2023/10/28 13:56:12;;;;;;;0.80;0.80;;;;;;;;;;5034867;28;20241;-86
2023/10/28 13:58:40;;;;;;;0.88;0.80;;;;;;;;;;5027126;28;20282;-87
2023/10/28 14:01:08;;;;;;;0.70;0.70;;;;;;;;;;5035073;28;20225;-87
2023/10/28 14:03:35;;;;;;;0.60;0.60;;;;;;;;;;5035008;28;20234;-88
2023/10/28 14:06:08;;;;;;;1.08;0.90;;;;;;;;;;5034950;28;20201;-87
2023/10/28 14:08:35;;;;;;;0.60;0.60;;;;;;;;;;5020408;28;20252;-87
2023/10/28 14:11:03;;;;;;;1.10;1.00;;;;;;;;;;5027887;28;20222;-87
2023/10/28 14:13:31;;;;;;;0.60;0.60;;;;;;;;;;5034650;28;20704;-88
2023/10/28 14:16:02;;;;;;;0.55;0.55;;;;;;;;;;5020113;28;20199;-88
2023/10/28 14:18:30;;;;;;;2.72;1.27;;;;;;;;;;5034816;28;20650;-88
2023/10/28 14:20:58;;;;;;;0.90;0.68;;;;;;;;;;5019561;28;20202;-85
2023/10/28 14:23:27;;;;;;;2.00;0.75;;;;;;;;;;5035714;28;20611;-85
2023/10/28 14:25:55;;;;;;;1.25;0.77;;;;;;;;;;5056565;28;20210;-85
2023/10/28 14:28:22;;;;;;;1.17;1.00;;;;;;;;;;5059270;28;20189;-85
2023/10/28 14:30:50;;;;;;;1.20;1.08;;;;;;;;;;5050765;28;20218;-85
2023/10/28 14:33:18;;;;;;;2.35;1.02;;;;;;;;;;5027978;28;20253;-85
2023/10/28 14:35:46;;;;;;;0.65;0.65;;;;;;;;;;5034796;28;20712;-85
2023/10/28 14:38:14;;;;;;;0.70;0.70;;;;;;;;;;5021238;28;20289;-85
2023/10/28 14:40:43;;;;;;;1.10;1.00;;;;;;;;;;5034369;28;20298;-86
2023/10/28 14:43:10;;;;;;;1.98;1.15;;;;;;;;;;5027030;28;20321;-87
2023/10/28 14:45:38;;;;;;;0.70;0.70;;;;;;;;;;5033894;28;20209;-86
2023/10/28 14:48:06;;;;;;;0.73;0.73;;;;;;;;;;5034410;28;20202;-87
2023/10/28 14:50:34;;;;;;;1.23;0.60;;;;;;;;;;5034834;28;20213;-86